createdAt,value
2019-05-05T00:05:19.749Z,26.97
2019-05-05T00:10:26.064Z,27.30
2019-05-05T00:15:46.152Z,28.63
2019-05-05T00:20:47.808Z,28.50
2019-05-05T00:25:50.717Z,29.37
2019-05-05T00:30:52.382Z,27.50
2019-05-05T00:35:54.681Z,28.93
2019-05-05T00:40:56.178Z,28.20
2019-05-05T00:46:02.144Z,28.53
2019-05-05T00:51:04.674Z,28.20
2019-05-05T00:56:06.882Z,29.40
2019-05-05T01:01:10.728Z,27.90
2019-05-05T01:06:15.077Z,28.93
2019-05-05T01:11:18.202Z,28.30
2019-05-05T01:16:20.617Z,28.63
2019-05-05T01:21:24.495Z,29.47
2019-05-05T01:26:26.661Z,28.67
2019-05-05T01:31:30.486Z,29.67
2019-05-05T01:36:34.569Z,30.80
2019-05-05T01:41:40.077Z,29.90
2019-05-05T01:46:41.945Z,30.63
2019-05-05T01:51:44.748Z,30.07
2019-05-05T01:56:47.674Z,29.33
2019-05-05T02:01:50.203Z,29.17
2019-05-05T02:06:54.761Z,30.23
2019-05-05T02:11:56.274Z,31.03
2019-05-05T02:16:58.735Z,28.90
2019-05-05T02:22:00.360Z,31.90
2019-05-05T02:27:02.234Z,30.20
2019-05-05T02:32:25.713Z,29.50
2019-05-05T02:37:28.022Z,29.10
2019-05-05T02:42:29.824Z,29.50
2019-05-05T02:47:48.516Z,30.70
2019-05-05T02:52:50.891Z,30.17
2019-05-05T02:57:54.396Z,28.80
2019-05-05T03:02:59.180Z,30.23
2019-05-05T03:08:00.986Z,29.47
2019-05-05T03:13:04.899Z,30.20
2019-05-05T03:18:07.256Z,29.50
2019-05-05T03:23:08.684Z,31.27
2019-05-05T03:28:10.353Z,31.63
2019-05-05T03:33:11.792Z,30.27
2019-05-05T03:38:14.462Z,31.40
2019-05-05T03:43:18.312Z,28.70
2019-05-05T03:48:20.717Z,30.73
2019-05-05T03:53:24.439Z,29.87
2019-05-05T03:58:26.652Z,29.03
2019-05-05T04:03:28.163Z,28.47
2019-05-05T04:08:29.933Z,28.23
2019-05-05T04:13:31.879Z,28.80
2019-05-05T04:18:36.123Z,28.40
2019-05-05T04:23:37.977Z,28.40
2019-05-05T04:28:40.391Z,28.80
2019-05-05T04:33:42.031Z,28.73
2019-05-05T04:38:44.094Z,27.20
2019-05-05T04:43:45.754Z,27.43
2019-05-05T04:48:59.765Z,27.30
2019-05-05T04:54:06.013Z,26.87
2019-05-05T04:59:08.020Z,26.50
2019-05-05T05:04:17.798Z,29.13
2019-05-05T05:09:19.850Z,28.03
2019-05-05T05:14:21.773Z,25.57
2019-05-05T05:19:24.270Z,26.90
2019-05-05T05:24:26.451Z,27.17
2019-05-05T05:29:28.558Z,27.00
2019-05-05T05:34:30.758Z,36.67
2019-05-05T05:39:34.512Z,52.00
2019-05-05T05:44:53.511Z,38.20
2019-05-05T05:50:04.115Z,45.70
2019-05-05T05:55:06.119Z,62.97
2019-05-05T06:00:10.340Z,52.00
2019-05-05T06:05:14.773Z,65.13
2019-05-05T06:10:24.298Z,90.90
2019-05-05T06:15:20.740Z,54.20
2019-05-05T06:20:26.034Z,69.47
2019-05-05T06:25:27.602Z,58.37
2019-05-05T06:30:29.208Z,54.10
2019-05-05T06:35:30.793Z,63.20
2019-05-05T06:40:40.894Z,88.03
2019-05-05T06:45:53.430Z,46.83
2019-05-05T06:50:55.459Z,99.07
2019-05-05T06:55:57.000Z,65.63
2019-05-05T07:00:59.300Z,58.53
2019-05-05T07:06:00.736Z,58.03
2019-05-05T07:11:04.114Z,65.50
2019-05-05T07:16:06.281Z,63.97
2019-05-05T07:21:07.819Z,46.77
2019-05-05T07:26:09.674Z,53.80
2019-05-05T07:31:14.302Z,50.43
2019-05-05T07:36:30.348Z,56.17
2019-05-05T07:41:34.051Z,57.90
2019-05-05T07:46:35.749Z,41.93
2019-05-05T07:51:37.319Z,45.47
2019-05-05T07:56:39.402Z,44.13
2019-05-05T08:01:46.796Z,39.03
2019-05-05T08:06:50.430Z,51.23
2019-05-05T08:11:54.185Z,48.87
2019-05-05T08:17:00.437Z,54.60
2019-05-05T08:22:03.697Z,38.83
2019-05-05T08:27:10.304Z,50.10
2019-05-05T08:32:27.012Z,48.63
2019-05-05T08:37:28.721Z,52.93
2019-05-05T08:42:30.308Z,54.77
2019-05-05T08:47:31.896Z,51.73
2019-05-05T08:52:34.433Z,43.97
2019-05-05T08:57:36.004Z,53.03
2019-05-05T09:02:38.547Z,44.27
2019-05-05T09:07:40.001Z,54.67
2019-05-05T09:12:44.540Z,45.70
2019-05-05T09:17:46.446Z,48.73
2019-05-05T09:22:48.064Z,41.50
2019-05-05T09:27:53.569Z,46.13
2019-05-05T09:32:55.574Z,54.10
2019-05-05T09:38:08.653Z,41.33
2019-05-05T09:43:14.769Z,45.27
2019-05-05T09:48:16.769Z,44.20
2019-05-05T09:53:23.800Z,47.73
2019-05-05T09:58:34.729Z,49.00
2019-05-05T10:03:37.750Z,40.67
2019-05-05T10:08:39.605Z,43.00
2019-05-05T10:13:41.162Z,44.47
2019-05-05T10:18:44.852Z,46.13
2019-05-05T10:23:48.352Z,42.67
2019-05-05T10:28:50.463Z,41.23
2019-05-05T10:33:56.922Z,45.00
2019-05-05T10:39:00.750Z,53.67
2019-05-05T10:44:03.700Z,40.63
2019-05-05T10:49:05.765Z,42.63
2019-05-05T10:54:07.445Z,42.03
2019-05-05T10:59:09.089Z,49.83
2019-05-05T11:04:13.603Z,44.40
2019-05-05T11:09:15.739Z,41.30
2019-05-05T11:14:17.786Z,42.80
2019-05-05T11:19:19.763Z,42.13
2019-05-05T11:24:21.402Z,43.60
2019-05-05T11:29:24.096Z,44.20
2019-05-05T11:34:28.120Z,59.23
2019-05-05T11:39:30.073Z,43.20
2019-05-05T11:44:33.521Z,43.33
2019-05-05T11:49:36.231Z,43.17
2019-05-05T11:54:37.802Z,44.33
2019-05-05T11:59:39.401Z,43.20
2019-05-05T12:04:40.974Z,41.93
2019-05-05T12:09:44.807Z,43.80
2019-05-05T12:14:49.296Z,45.13
2019-05-05T12:19:56.236Z,44.63
2019-05-05T12:24:58.221Z,44.17
2019-05-05T12:30:01.234Z,44.17
2019-05-05T12:35:04.293Z,44.33
2019-05-05T12:40:09.366Z,44.73
2019-05-05T12:45:13.809Z,43.93
2019-05-05T12:50:15.690Z,48.67
2019-05-05T12:55:17.551Z,46.17
2019-05-05T13:00:20.411Z,45.13
2019-05-05T13:05:23.698Z,53.23
2019-05-05T13:10:25.616Z,43.97
2019-05-05T13:15:27.566Z,43.93
2019-05-05T13:20:47.272Z,45.07
2019-05-05T13:25:58.905Z,53.33
2019-05-05T13:30:57.789Z,45.33
2019-05-05T13:36:00.887Z,50.20
2019-05-05T13:41:03.808Z,43.93
2019-05-05T13:46:14.075Z,44.77
2019-05-05T13:51:17.973Z,44.40
2019-05-05T13:56:19.704Z,45.10
2019-05-05T14:01:23.550Z,43.60
2019-05-05T14:06:25.250Z,43.60
2019-05-05T14:11:27.026Z,43.17
2019-05-05T14:16:29.060Z,42.70
2019-05-05T14:21:38.703Z,42.67
2019-05-05T14:26:43.862Z,45.00
2019-05-05T14:31:46.752Z,43.17
2019-05-05T14:36:50.564Z,43.70
2019-05-05T14:41:53.941Z,43.77
2019-05-05T14:46:56.199Z,43.63
2019-05-05T14:52:00.467Z,43.97
2019-05-05T14:57:04.390Z,43.57
2019-05-05T15:02:10.159Z,43.00
2019-05-05T15:07:33.954Z,42.47
2019-05-05T15:12:44.619Z,44.93
2019-05-05T15:17:47.497Z,49.83
2019-05-05T15:22:49.965Z,41.23
2019-05-05T15:27:54.377Z,41.53
2019-05-05T15:32:56.516Z,42.17
2019-05-05T15:38:00.767Z,40.63
2019-05-05T15:43:03.813Z,41.90
2019-05-05T15:48:07.960Z,41.13
2019-05-05T15:53:09.816Z,40.63
2019-05-05T15:58:14.033Z,40.07
2019-05-05T16:03:17.423Z,39.67
2019-05-05T16:08:21.282Z,38.20
2019-05-05T16:13:23.818Z,39.23
2019-05-05T16:18:30.493Z,38.50
2019-05-05T16:23:50.865Z,39.07
2019-05-05T16:28:56.359Z,40.33
2019-05-05T16:34:01.280Z,40.07
2019-05-05T16:39:05.408Z,39.60
2019-05-05T16:44:08.841Z,39.80
2019-05-05T16:49:11.240Z,42.70
2019-05-05T16:54:24.301Z,39.80
2019-05-05T16:59:27.071Z,39.27
2019-05-05T17:04:28.884Z,39.07
2019-05-05T17:09:30.873Z,40.10
2019-05-05T17:14:34.666Z,40.03
2019-05-05T17:19:38.713Z,39.93
2019-05-05T17:24:40.567Z,39.47
2019-05-05T17:29:43.993Z,40.30
2019-05-05T17:34:45.944Z,40.20
2019-05-05T17:39:49.586Z,39.33
2019-05-05T17:45:03.716Z,40.80
2019-05-05T17:50:14.443Z,40.10
2019-05-05T17:55:20.137Z,39.90
2019-05-05T18:00:24.321Z,39.63
2019-05-05T18:05:45.963Z,40.53
2019-05-05T18:10:49.693Z,40.53
2019-05-05T18:15:54.357Z,40.13
2019-05-05T18:20:56.899Z,48.27
2019-05-05T18:25:59.190Z,44.63
2019-05-05T18:31:01.559Z,36.20
2019-05-05T18:36:04.422Z,35.90
2019-05-05T18:41:11.560Z,35.60
2019-05-05T18:46:24.430Z,33.70
2019-05-05T18:51:30.658Z,32.67
2019-05-05T18:56:34.607Z,26.40
2019-05-05T19:01:41.084Z,26.37
2019-05-05T19:06:47.599Z,27.97
2019-05-05T19:11:49.892Z,28.60
2019-05-05T19:16:58.225Z,27.33
2019-05-05T19:22:04.243Z,28.93
2019-05-05T19:27:06.068Z,29.30
2019-05-05T19:32:08.237Z,37.40
2019-05-05T19:37:10.288Z,27.60
2019-05-05T19:42:14.311Z,30.10
2019-05-05T19:47:20.237Z,26.43
2019-05-05T19:52:24.029Z,31.53
2019-05-05T19:57:25.955Z,29.77
2019-05-05T20:02:27.771Z,25.40
2019-05-05T20:07:30.062Z,31.53
2019-05-05T20:12:33.540Z,26.73
2019-05-05T20:17:37.191Z,24.73
2019-05-05T20:22:39.376Z,20.03
2019-05-05T20:27:40.947Z,31.47
2019-05-05T20:32:44.337Z,25.73
2019-05-05T20:37:51.070Z,21.63
2019-05-05T20:42:54.314Z,29.20
2019-05-05T20:47:56.282Z,25.47
2019-05-05T20:52:58.609Z,20.20
2019-05-05T20:58:00.274Z,21.73
2019-05-05T21:03:04.539Z,33.10
2019-05-05T21:08:06.071Z,23.73
2019-05-05T21:13:07.698Z,28.23
2019-05-05T21:18:09.679Z,24.97
2019-05-05T21:23:14.392Z,28.70
2019-05-05T21:28:16.735Z,31.17
2019-05-05T21:33:18.544Z,27.67
2019-05-05T21:38:20.550Z,37.37
2019-05-05T21:43:24.814Z,47.97
2019-05-05T21:48:26.449Z,26.77
2019-05-05T21:53:45.299Z,20.40
2019-05-05T21:58:47.776Z,34.30
2019-05-05T22:03:49.399Z,21.10
2019-05-05T22:08:53.293Z,16.70
2019-05-05T22:13:55.311Z,29.63
2019-05-05T22:18:56.910Z,32.33
2019-05-05T22:24:18.269Z,21.90
2019-05-05T22:29:19.898Z,27.23
2019-05-05T22:34:21.428Z,24.00
2019-05-05T22:39:24.332Z,27.57
2019-05-05T22:44:28.660Z,25.00
2019-05-05T22:49:30.109Z,28.60
2019-05-05T22:54:33.605Z,30.43
2019-05-05T22:59:35.384Z,25.40
2019-05-05T23:04:39.041Z,34.17
2019-05-05T23:09:40.912Z,27.30
2019-05-05T23:14:43.696Z,29.00
2019-05-05T23:20:04.840Z,24.30
2019-05-05T23:25:14.531Z,35.77
2019-05-05T23:30:20.705Z,31.33
2019-05-05T23:35:23.953Z,29.33
2019-05-05T23:40:30.585Z,27.70
2019-05-05T23:45:37.402Z,25.90
2019-05-05T23:50:40.881Z,23.80
2019-05-05T23:55:44.069Z,28.43
